Time;durP1;ratioP1;P1;durP2;ratioP2;P2;SDS_P1;SDS_P2;PMS_P1;PMS_P2;Temp;Humidity;BMP_temperature;BMP_pressure;BME280_temperature;BME280_humidity;BME280_pressure;Samples;Min_cycle;Max_cycle;Signal;HPM_P1;HPM_P2
2023/01/01 00:00:12;;;;;;;72.13;64.72;;;;;;;4.08;72.83;96337.75;5094467;28;20196;-72
2023/01/01 00:02:39;;;;;;;75.10;67.78;;;;;;;4.01;72.48;96324.41;5094431;28;20200;-72
2023/01/01 00:05:07;;;;;;;59.20;53.13;;;;;;;3.97;72.68;96334.25;5094269;28;20195;-72
2023/01/01 00:07:33;;;;;;;56.28;50.47;;;;;;;3.95;72.57;96336.44;5094414;28;20200;-71
2023/01/01 00:12:45;;;;;;;56.40;50.67;;;;;;;3.92;73.16;96347.09;5094156;28;20203;-72
2023/01/01 00:15:12;;;;;;;65.82;59.17;;;;;;;3.92;73.05;96345.22;5094098;28;20192;-72
2023/01/01 00:17:39;;;;;;;69.47;62.65;;;;;;;3.91;74.06;96346.28;5097035;28;20211;-72
2023/01/01 00:20:06;;;;;;;69.30;62.28;;;;;;;3.92;74.18;96345.22;5098621;28;20203;-72
2023/01/01 00:22:33;;;;;;;64.22;57.67;;;;;;;3.99;74.27;96348.44;5098286;28;20223;-72
2023/01/01 00:25:00;;;;;;;62.25;55.83;;;;;;;4.06;74.06;96350.84;5099288;28;20195;-72
2023/01/01 00:27:27;;;;;;;63.17;56.78;;;;;;;4.11;73.86;96348.13;5099326;28;20193;-72
2023/01/01 00:29:55;;;;;;;63.70;57.30;;;;;;;4.07;73.66;96355.25;5098666;28;20269;-72
2023/01/01 00:32:22;;;;;;;62.70;56.33;;;;;;;4.04;73.27;96355.78;5098449;28;20199;-72
2023/01/01 00:34:48;;;;;;;62.22;55.70;;;;;;;3.99;73.13;96362.06;5097978;28;20196;-72
2023/01/01 00:37:17;;;;;;;70.70;63.70;;;;;;;3.97;72.81;96358.81;5099175;28;20191;-71
2023/01/01 00:39:43;;;;;;;65.30;58.90;;;;;;;3.94;73.11;96361.28;5099070;28;20299;-72
2023/01/01 00:42:10;;;;;;;68.63;61.60;;;;;;;3.96;73.44;96353.63;5099081;28;20233;-72
2023/01/01 00:44:37;;;;;;;63.00;56.88;;;;;;;3.96;73.46;96357.19;5098344;28;20197;-72
2023/01/01 00:47:05;;;;;;;61.17;55.20;;;;;;;3.95;73.75;96363.72;5098695;28;20204;-72
2023/01/01 00:49:32;;;;;;;60.78;54.70;;;;;;;3.96;73.77;96364.53;5099277;28;20193;-72
2023/01/01 00:51:59;;;;;;;65.30;58.60;;;;;;;4.00;73.62;96362.91;5097884;28;20196;-72
2023/01/01 00:54:25;;;;;;;62.67;56.38;;;;;;;4.00;73.12;96357.47;5098514;28;20173;-72
2023/01/01 00:56:52;;;;;;;64.80;58.28;;;;;;;3.90;73.00;96358.31;5098749;28;20252;-72
2023/01/01 00:59:19;;;;;;;59.50;53.33;;;;;;;3.84;73.26;96368.41;5098428;28;20199;-72
2023/01/01 01:01:46;;;;;;;60.60;54.53;;;;;;;3.86;73.96;96368.97;5097655;28;20524;-72
2023/01/01 01:04:14;;;;;;;62.38;56.00;;;;;;;3.89;73.44;96358.59;5098896;28;20185;-72
2023/01/01 01:06:41;;;;;;;67.75;60.95;;;;;;;3.82;73.27;96362.44;5098343;28;20184;-72
2023/01/01 01:09:08;;;;;;;72.85;65.70;;;;;;;3.80;73.03;96353.69;5098779;28;20262;-72
2023/01/01 01:11:35;;;;;;;71.47;64.22;;;;;;;3.81;73.14;96357.22;5098959;28;20220;-71
2023/01/01 01:14:02;;;;;;;68.97;61.75;;;;;;;3.85;73.13;96361.06;5098694;28;20204;-71
2023/01/01 01:16:31;;;;;;;64.95;58.55;;;;;;;3.82;73.07;96362.44;5097526;28;20258;-71
2023/01/01 01:18:59;;;;;;;68.32;61.55;;;;;;;3.81;72.66;96355.34;5097434;28;20200;-72
2023/01/01 01:21:30;;;;;;;68.63;61.60;;;;;;;3.79;72.85;96359.44;5098139;28;20212;-71
2023/01/01 01:23:57;;;;;;;67.97;60.97;;;;;;;3.69;72.47;96349.38;5097436;28;20181;-72
2023/01/01 01:26:25;;;;;;;67.07;60.47;;;;;;;3.67;72.67;96346.13;5097956;28;20204;-72
2023/01/01 01:28:53;;;;;;;65.70;58.95;;;;;;;3.69;72.98;96341.19;5096481;28;20203;-72
2023/01/01 01:31:21;;;;;;;62.72;56.25;;;;;;;3.73;73.08;96346.91;5097394;28;20203;-71
2023/01/01 01:33:48;;;;;;;57.35;51.75;;;;;;;3.70;72.91;96342.81;5098051;28;20191;-71
2023/01/01 01:36:16;;;;;;;56.97;51.17;;;;;;;3.71;73.12;96341.72;5098087;28;20258;-71
2023/01/01 01:38:44;;;;;;;54.78;49.30;;;;;;;3.68;72.82;96346.94;5097111;28;20261;-72
2023/01/01 01:41:12;;;;;;;56.63;50.95;;;;;;;3.67;73.36;96345.28;5097091;28;20368;-71
2023/01/01 01:43:54;;;;;;;59.33;53.55;;;;;;;3.69;72.88;96345.81;5096628;28;20201;-71
2023/01/01 01:46:25;;;;;;;60.53;54.42;;;;;;;3.68;73.08;96347.75;5096947;28;20196;-72
2023/01/01 01:48:52;;;;;;;62.05;55.83;;;;;;;3.64;72.76;96348.59;5097610;28;20589;-71
2023/01/01 01:51:23;;;;;;;65.63;58.95;;;;;;;3.53;73.32;96350.53;5096563;28;20200;-72
2023/01/01 01:53:54;;;;;;;67.22;60.33;;;;;;;3.48;73.09;96351.31;5097225;28;20204;-72
2023/01/01 01:56:25;;;;;;;63.38;57.25;;;;;;;3.46;72.86;96344.53;5097436;28;20180;-71
2023/01/01 01:58:52;;;;;;;61.75;55.53;;;;;;;3.45;73.33;96346.44;5097494;28;20196;-71
2023/01/01 02:01:18;;;;;;;61.50;55.20;;;;;;;3.41;73.82;96353.53;5096832;28;20220;-72
2023/01/01 02:03:49;;;;;;;63.20;56.40;;;;;;;3.40;73.81;96353.81;5096263;28;20265;-72
2023/01/01 02:06:16;;;;;;;64.30;57.42;;;;;;;3.39;73.96;96355.72;5096244;28;20250;-72
2023/01/01 02:08:43;;;;;;;65.05;58.35;;;;;;;3.41;74.34;96350.78;5079707;28;20207;-71
2023/01/01 02:11:11;;;;;;;68.18;61.15;;;;;;;3.45;74.29;96357.34;5097054;28;20241;-72
2023/01/01 02:13:38;;;;;;;66.90;59.95;;;;;;;3.51;74.71;96356.22;5097013;28;20208;-72
2023/01/01 02:16:09;;;;;;;67.45;60.33;;;;;;;3.59;74.33;96360.31;5096344;28;20196;-72
2023/01/01 02:18:41;;;;;;;66.50;60.03;;;;;;;3.53;73.43;96364.16;5096874;28;20230;-72
2023/01/01 02:21:11;;;;;;;67.47;60.78;;;;;;;3.39;73.39;96361.19;5096179;28;20200;-72
2023/01/01 02:23:53;;;;;;;65.75;59.10;;;;;;;3.38;73.58;96365.81;5096251;28;20189;-72
2023/01/01 02:26:38;;;;;;;64.45;57.90;;;;;;;3.41;73.83;96361.69;5096044;28;20274;-72
2023/01/01 02:29:10;;;;;;;64.03;57.53;;;;;;;3.45;73.74;96359.25;5095989;28;20192;-72
2023/01/01 02:31:42;;;;;;;67.60;60.78;;;;;;;3.34;73.11;96369.34;5096579;28;20201;-72
2023/01/01 02:34:11;;;;;;;66.35;59.42;;;;;;;3.26;73.28;96364.47;5095578;28;20207;-72
2023/01/01 02:36:42;;;;;;;66.53;60.03;;;;;;;3.29;73.07;96359.28;5095989;28;20181;-72
2023/01/01 02:39:10;;;;;;;66.32;59.40;;;;;;;3.29;73.15;96359.28;5095174;28;20194;-72
2023/01/01 02:41:40;;;;;;;66.22;59.22;;;;;;;3.25;73.61;96363.66;5095486;28;20240;-72
2023/01/01 02:44:08;;;;;;;64.13;57.42;;;;;;;3.23;73.76;96360.41;5095667;28;20211;-72
2023/01/01 02:46:36;;;;;;;63.40;57.03;;;;;;;3.25;73.63;96358.19;5095601;28;20207;-72
2023/01/01 02:49:02;;;;;;;65.30;58.55;;;;;;;3.23;73.80;96362.28;5095838;28;20192;-72
2023/01/01 02:51:35;;;;;;;64.60;58.17;;;;;;;3.17;74.07;96360.66;5095910;28;20200;-72
2023/01/01 02:54:08;;;;;;;65.63;58.63;;;;;;;3.24;74.09;96362.03;5095924;28;20195;-71
2023/01/01 02:56:39;;;;;;;64.25;57.58;;;;;;;3.27;74.17;96355.22;5095504;28;20567;-72
2023/01/01 03:02:23;;;;;;;65.13;58.65;;;;;;;3.30;73.64;96343.72;5095473;28;20222;-72
2023/01/01 03:05:04;;;;;;;67.43;60.83;;;;;;;3.24;73.97;96342.13;5095570;28;20207;-72
2023/01/01 03:07:38;;;;;;;66.53;59.63;;;;;;;3.16;74.35;96346.22;5095202;28;20188;-72
2023/01/01 03:10:14;;;;;;;66.93;60.03;;;;;;;3.25;74.72;96338.28;5095220;28;20200;-71
2023/01/01 03:12:44;;;;;;;66.78;59.85;;;;;;;3.33;74.46;96337.72;5095287;28;20608;-71
2023/01/01 03:15:19;;;;;;;65.00;58.42;;;;;;;3.31;74.21;96338.03;5095323;28;20200;-72
2023/01/01 03:17:50;;;;;;;62.05;55.95;;;;;;;3.13;73.04;96355.75;5095333;28;20204;-72
2023/01/01 03:20:21;;;;;;;57.53;52.10;;;;;;;2.97;73.57;96356.84;5095227;28;20641;-72
2023/01/01 03:22:49;;;;;;;56.25;50.75;;;;;;;2.92;73.23;96364.22;5094781;28;20227;-72
2023/01/01 03:25:21;;;;;;;60.03;54.13;;;;;;;2.93;73.54;96361.22;5095557;28;20201;-72
2023/01/01 03:27:50;;;;;;;60.47;54.35;;;;;;;2.87;73.70;96365.88;5095020;28;20192;-72
2023/01/01 03:30:20;;;;;;;59.78;54.08;;;;;;;2.87;73.22;96365.88;5095070;28;20196;-72
2023/01/01 03:33:02;;;;;;;62.88;56.67;;;;;;;2.89;73.62;96368.31;5094865;28;20571;-72
2023/01/01 03:35:34;;;;;;;63.00;56.50;;;;;;;2.92;74.19;96359.59;5095196;28;20208;-72
2023/01/01 03:38:20;;;;;;;64.18;57.97;;;;;;;2.94;74.68;96367.47;5094912;28;20204;-72
2023/01/01 03:40:48;;;;;;;64.68;57.95;;;;;;;2.98;74.92;96358.50;5094213;28;20248;-72
2023/01/01 03:43:19;;;;;;;66.28;59.47;;;;;;;3.01;75.09;96359.84;5094920;28;20216;-72
2023/01/01 03:45:49;;;;;;;66.03;59.25;;;;;;;3.01;75.59;96352.47;5095517;28;20184;-72
2023/01/01 03:48:16;;;;;;;64.60;58.20;;;;;;;3.08;75.78;96357.66;5094989;28;20204;-72
2023/01/01 03:50:50;;;;;;;63.47;56.97;;;;;;;3.10;75.54;96352.78;5094616;28;20192;-72
2023/01/01 03:53:23;;;;;;;60.00;54.10;;;;;;;3.08;74.48;96349.47;5094485;28;20608;-72
2023/01/01 03:55:56;;;;;;;60.85;54.85;;;;;;;3.07;74.25;96356.03;5094274;28;20193;-72
2023/01/01 03:58:27;;;;;;;61.72;55.53;;;;;;;3.02;74.32;96353.31;5094596;28;20197;-72
2023/01/01 04:00:58;;;;;;;59.53;53.80;;;;;;;2.94;73.81;96370.19;5094412;28;20210;-72
2023/01/01 04:03:27;;;;;;;60.88;54.83;;;;;;;2.89;74.20;96360.94;5094381;28;20212;-72
2023/01/01 04:05:54;;;;;;;59.17;53.55;;;;;;;2.88;73.96;96361.22;5094651;28;20188;-72
2023/01/01 04:08:21;;;;;;;60.70;54.63;;;;;;;2.93;74.31;96363.13;5094677;28;20188;-72
2023/01/01 04:10:51;;;;;;;61.08;55.00;;;;;;;2.87;74.11;96359.59;5095223;28;20249;-72
2023/01/01 04:13:18;;;;;;;61.33;55.33;;;;;;;2.87;74.80;96357.69;5094218;28;20541;-72
2023/01/01 04:15:45;;;;;;;59.85;53.70;;;;;;;2.93;74.59;96366.66;5095013;28;20176;-72
2023/01/01 04:18:13;;;;;;;60.83;54.85;;;;;;;2.93;74.37;96363.94;5095055;28;20200;-72
2023/01/01 04:20:39;;;;;;;63.65;57.17;;;;;;;2.90;73.91;96369.94;5094292;28;20258;-72
2023/01/01 04:23:06;;;;;;;63.22;56.90;;;;;;;2.93;74.37;96365.84;5094263;28;20228;-72
2023/01/01 04:25:33;;;;;;;62.75;56.60;;;;;;;2.95;74.80;96356.31;5093991;28;20200;-72
2023/01/01 04:28:02;;;;;;;63.03;56.53;;;;;;;2.91;74.19;96359.88;5095164;28;20246;-72
2023/01/01 04:30:47;;;;;;;62.55;56.33;;;;;;;2.92;74.74;96362.31;5095128;28;20192;-72
2023/01/01 04:33:15;;;;;;;61.38;55.33;;;;;;;2.96;74.53;96363.41;5093992;28;20564;-72
2023/01/01 04:35:42;;;;;;;61.63;55.50;;;;;;;2.95;74.45;96360.97;5095089;28;20305;-72
2023/01/01 04:38:12;;;;;;;60.78;54.75;;;;;;;2.92;74.54;96356.88;5094200;28;20197;-72
2023/01/01 04:40:39;;;;;;;60.45;54.40;;;;;;;2.93;74.34;96352.22;5093913;28;20235;-72
2023/01/01 04:43:06;;;;;;;60.78;54.65;;;;;;;2.89;74.56;96363.66;5094120;28;20220;-72
2023/01/01 04:45:33;;;;;;;61.65;55.47;;;;;;;2.87;74.19;96363.13;5094340;28;20279;-72
2023/01/01 04:48:04;;;;;;;61.90;55.90;;;;;;;2.89;74.20;96354.69;5094380;28;20193;-72
2023/01/01 04:50:32;;;;;;;64.53;58.10;;;;;;;2.92;73.86;96364.22;5093801;28;20196;-72
2023/01/01 04:52:58;;;;;;;62.33;56.17;;;;;;;2.88;73.33;96358.50;5094895;28;20239;-72
2023/01/01 04:55:25;;;;;;;62.35;56.40;;;;;;;2.80;73.68;96353.59;5093967;28;20582;-72
2023/01/01 04:57:52;;;;;;;63.20;56.90;;;;;;;2.75;73.50;96359.84;5093942;28;20197;-72
2023/01/01 05:00:20;;;;;;;63.45;57.35;;;;;;;2.69;73.42;96360.94;5094851;28;20192;-72
2023/01/01 05:02:46;;;;;;;62.90;56.75;;;;;;;2.70;73.67;96364.50;5095375;28;20667;-72
2023/01/01 05:05:13;;;;;;;61.22;55.08;;;;;;;2.68;73.72;96375.63;5097657;28;20245;-72
2023/01/01 05:07:42;;;;;;;62.05;55.95;;;;;;;2.66;73.96;96377.84;5098201;28;20184;-72
2023/01/01 05:10:09;;;;;;;62.00;55.67;;;;;;;2.64;73.63;96380.81;5098542;28;20261;-72
2023/01/01 05:12:35;;;;;;;63.45;57.17;;;;;;;2.57;73.62;96377.53;5097321;28;20674;-72
2023/01/01 05:15:02;;;;;;;61.42;55.53;;;;;;;2.59;73.71;96383.53;5097579;28;20207;-72
2023/01/01 05:17:29;;;;;;;61.03;54.90;;;;;;;2.62;73.65;96379.47;5098583;28;20193;-72
2023/01/01 05:19:56;;;;;;;60.00;54.22;;;;;;;2.60;73.73;96374.28;5097398;28;20200;-72
2023/01/01 05:22:23;;;;;;;59.25;53.35;;;;;;;2.60;74.30;96382.44;5098226;28;20245;-72
2023/01/01 05:24:51;;;;;;;60.85;54.47;;;;;;;2.61;74.70;96378.66;5097023;28;20196;-72
2023/01/01 05:27:18;;;;;;;59.45;53.50;;;;;;;2.66;74.58;96383.28;5097448;28;20204;-72
2023/01/01 05:29:45;;;;;;;61.05;55.03;;;;;;;2.69;73.81;96376.44;5097490;28;20204;-72
2023/01/01 05:32:11;;;;;;;58.65;52.95;;;;;;;2.69;74.21;96382.75;5097459;28;20197;-72
2023/01/01 05:34:38;;;;;;;64.07;57.60;;;;;;;2.65;74.22;96385.19;5096971;28;20196;-72
2023/01/01 05:37:05;;;;;;;63.35;57.08;;;;;;;2.62;73.58;96390.38;5096802;28;20197;-72
2023/01/01 05:39:32;;;;;;;65.95;59.40;;;;;;;2.61;73.75;96389.56;5096840;28;20200;-72
2023/01/01 05:42:00;;;;;;;62.88;56.60;;;;;;;2.57;73.63;96388.44;5096513;28;20270;-72
2023/01/01 05:44:26;;;;;;;55.22;49.45;;;;;;;2.52;73.67;96387.63;5096997;28;20192;-72
2023/01/01 05:46:53;;;;;;;55.47;50.03;;;;;;;2.48;74.58;96391.97;5096898;28;20188;-71
2023/01/01 05:49:20;;;;;;;55.05;49.33;;;;;;;2.51;74.47;96389.53;5097152;28;20192;-71
2023/01/01 05:51:46;;;;;;;57.38;51.78;;;;;;;2.57;74.79;96390.34;5096893;28;20203;-72
2023/01/01 05:54:13;;;;;;;61.08;54.75;;;;;;;2.60;74.46;96396.06;5097079;28;20494;-72
2023/01/01 05:56:40;;;;;;;62.60;56.13;;;;;;;2.59;73.98;96397.16;5096859;28;20193;-72
2023/01/01 05:59:10;;;;;;;61.22;55.15;;;;;;;2.56;74.12;96397.69;5096308;28;20215;-71
2023/01/01 06:01:36;;;;;;;59.67;53.53;;;;;;;2.56;73.98;96399.59;5096952;28;20200;-72
2023/01/01 06:04:03;;;;;;;56.60;50.85;;;;;;;2.55;73.96;96393.34;5096385;28;20220;-72
2023/01/01 06:06:31;;;;;;;54.75;49.30;;;;;;;2.52;74.66;96402.06;5096758;28;20203;-71
2023/01/01 06:09:00;;;;;;;57.05;51.28;;;;;;;2.54;74.62;96399.03;5096121;28;20192;-71
2023/01/01 06:11:27;;;;;;;58.53;52.60;;;;;;;2.57;74.34;96399.31;5096100;28;20200;-71
2023/01/01 06:13:55;;;;;;;59.28;53.42;;;;;;;2.58;74.30;96403.69;5095790;28;20527;-71
2023/01/01 06:16:24;;;;;;;59.67;53.50;;;;;;;2.60;74.19;96400.69;5096050;28;20225;-72
2023/01/01 06:18:50;;;;;;;59.83;53.65;;;;;;;2.55;74.60;96396.06;5095909;28;20199;-72
2023/01/01 06:21:19;;;;;;;60.53;54.30;;;;;;;2.58;75.17;96397.44;5096595;28;20659;-71
2023/01/01 06:23:46;;;;;;;59.80;53.85;;;;;;;2.68;74.33;96404.78;5095778;28;20216;-71
2023/01/01 06:26:15;;;;;;;60.67;54.75;;;;;;;2.68;74.61;96407.50;5079285;28;20207;-71
2023/01/01 06:28:42;;;;;;;65.88;59.33;;;;;;;2.65;74.28;96403.41;5096135;28;20196;-71
2023/01/01 06:31:12;;;;;;;78.30;70.38;;;;;;;2.65;75.19;96406.13;5096923;28;20196;-72
2023/01/01 06:33:40;;;;;;;76.00;68.50;;;;;;;2.67;75.84;96401.25;5096927;28;20185;-72
2023/01/01 06:36:10;;;;;;;74.75;67.25;;;;;;;2.73;75.65;96407.53;5095889;28;20214;-72
2023/01/01 06:38:37;;;;;;;86.53;78.20;;;;;;;2.78;75.93;96405.63;5095985;28;20192;-72
2023/01/01 06:41:06;;;;;;;93.75;84.35;;;;;;;2.86;76.65;96415.16;5096500;28;20232;-72
2023/01/01 06:43:34;;;;;;;90.57;81.57;;;;;;;2.97;77.20;96421.44;5095566;28;20644;-72
2023/01/01 06:46:02;;;;;;;84.00;75.63;;;;;;;3.08;76.66;96423.09;5095579;28;20201;-72
2023/01/01 06:48:30;;;;;;;80.78;72.68;;;;;;;3.11;76.23;96419.81;5096047;28;20200;-72
2023/01/01 06:51:05;;;;;;;82.15;74.07;;;;;;;3.14;75.76;96424.72;5096649;28;20249;-72
2023/01/01 06:53:32;;;;;;;76.72;69.13;;;;;;;3.14;75.87;96431.00;5095958;28;20210;-72
2023/01/01 06:55:58;;;;;;;77.50;70.07;;;;;;;3.16;75.66;96438.94;5095731;28;20195;-72
2023/01/01 06:58:25;;;;;;;75.43;68.28;;;;;;;3.15;75.98;96434.53;5095649;28;20200;-72
2023/01/01 07:00:52;;;;;;;72.03;64.78;;;;;;;3.17;75.65;96432.38;5095356;28;20529;-71
2023/01/01 07:03:18;;;;;;;73.30;66.10;;;;;;;3.21;75.52;96427.19;5095588;28;20216;-72
2023/01/01 07:05:45;;;;;;;70.30;63.15;;;;;;;3.26;76.04;96438.09;5096285;28;20185;-72
2023/01/01 07:08:13;;;;;;;70.32;63.22;;;;;;;3.28;75.69;96442.19;5095030;28;20615;-71
2023/01/01 07:10:40;;;;;;;56.22;50.58;;;;;;;3.28;75.85;96439.47;5096466;28;20218;-71
2023/01/01 07:13:07;;;;;;;58.72;52.88;;;;;;;3.29;76.62;96438.34;5095320;28;20193;-73
2023/01/01 07:15:33;;;;;;;58.97;53.05;;;;;;;3.38;76.78;96442.19;5096161;28;20200;-71
2023/01/01 07:18:01;;;;;;;60.58;54.38;;;;;;;3.41;76.26;96437.25;5096370;28;20180;-71
2023/01/01 07:20:27;;;;;;;60.58;54.47;;;;;;;3.45;77.07;96441.06;5095162;28;20261;-71
2023/01/01 07:22:54;;;;;;;63.80;57.25;;;;;;;3.51;76.54;96432.63;5095603;28;20212;-70
2023/01/01 07:25:23;;;;;;;64.50;57.90;;;;;;;3.62;76.94;96431.50;5095855;28;20184;-72
2023/01/01 07:27:50;;;;;;;66.35;59.67;;;;;;;3.73;76.65;96431.50;5095726;28;20512;-71
2023/01/01 07:30:17;;;;;;;71.40;64.30;;;;;;;3.83;76.68;96420.56;5094967;28;20188;-71
2023/01/01 07:32:43;;;;;;;77.18;69.32;;;;;;;3.88;75.93;96428.72;5095034;28;20211;-71
2023/01/01 07:35:10;;;;;;;77.43;69.35;;;;;;;3.93;76.29;96427.91;5094930;28;20196;-71
2023/01/01 07:37:37;;;;;;;83.53;74.88;;;;;;;4.01;76.53;96425.41;5095914;28;20200;-71
2023/01/01 07:40:05;;;;;;;84.18;75.78;;;;;;;4.09;76.01;96427.56;5094692;28;20293;-71
2023/01/01 07:42:33;;;;;;;100.05;90.13;;;;;;;4.15;76.53;96430.28;5094493;28;20558;-70
2023/01/01 07:44:59;;;;;;;101.72;91.50;;;;;;;4.24;76.12;96425.88;5095377;28;20200;-71
2023/01/01 07:47:26;;;;;;;114.75;103.38;;;;;;;4.35;76.39;96428.28;5095703;28;20181;-71
2023/01/01 07:49:53;;;;;;;127.97;114.72;;;;;;;4.45;76.12;96432.88;5094787;28;20188;-71
2023/01/01 07:52:20;;;;;;;129.38;116.40;;;;;;;4.57;75.81;96433.38;5095464;28;20241;-72
2023/01/01 07:54:47;;;;;;;123.40;111.22;;;;;;;4.76;75.87;96430.81;5094188;28;20601;-72
2023/01/01 07:57:14;;;;;;;123.32;111.10;;;;;;;4.95;75.11;96433.69;5095218;28;20192;-73
2023/01/01 07:59:42;;;;;;;119.63;107.22;;;;;;;5.16;75.17;96428.09;5094630;28;20196;-72
2023/01/01 08:02:10;;;;;;;119.10;107.05;;;;;;;5.29;74.33;96428.22;5095589;28;20204;-71
2023/01/01 08:04:37;;;;;;;109.53;98.47;;;;;;;5.38;74.57;96430.38;5094241;28;20656;-74
2023/01/01 08:07:04;;;;;;;109.55;98.60;;;;;;;5.55;74.09;96438.97;5095440;28;20180;-71
2023/01/01 08:09:31;;;;;;;112.63;101.55;;;;;;;5.70;73.20;96435.25;5094711;28;20200;-71
2023/01/01 08:11:58;;;;;;;108.75;98.05;;;;;;;5.83;73.33;96442.00;5095008;28;20620;-71
2023/01/01 08:14:25;;;;;;;105.32;94.85;;;;;;;6.00;73.03;96447.88;5094225;28;20571;-71
2023/01/01 08:16:53;;;;;;;107.32;96.38;;;;;;;6.10;72.50;96438.72;5077550;28;20196;-71
2023/01/01 08:19:20;;;;;;;106.80;96.15;;;;;;;6.18;72.01;96441.66;5094123;28;20204;-71
2023/01/01 08:21:46;;;;;;;112.45;101.45;;;;;;;6.25;71.94;96444.88;5093877;28;20438;-72
2023/01/01 08:24:14;;;;;;;114.57;103.77;;;;;;;6.40;71.89;96454.81;5093355;28;20422;-71
2023/01/01 08:26:41;;;;;;;111.60;100.30;;;;;;;6.51;71.52;96448.09;5094458;28;20475;-72
2023/01/01 08:29:07;;;;;;;108.70;97.90;;;;;;;6.55;71.17;96445.59;5094834;28;20192;-71
2023/01/01 08:31:34;;;;;;;106.43;95.72;;;;;;;6.60;70.79;96451.00;5095600;28;20184;-72
2023/01/01 08:34:02;;;;;;;103.60;93.50;;;;;;;6.63;70.78;96446.88;5094929;28;20203;-72
2023/01/01 08:36:29;;;;;;;108.43;97.80;;;;;;;6.69;70.75;96448.44;5094501;28;20374;-71
2023/01/01 08:38:56;;;;;;;107.90;96.97;;;;;;;6.67;70.35;96440.50;5097951;28;20623;-72
2023/01/01 08:41:23;;;;;;;104.55;94.18;;;;;;;6.78;70.25;96443.09;5098211;28;20232;-73
2023/01/01 08:43:49;;;;;;;101.60;91.38;;;;;;;6.87;70.59;96446.81;5097824;28;20220;-72
2023/01/01 08:46:16;;;;;;;99.35;89.32;;;;;;;6.96;70.27;96443.09;5098136;28;20195;-71
2023/01/01 08:48:43;;;;;;;95.80;86.20;;;;;;;7.09;70.16;96441.56;5098114;28;20196;-71
2023/01/01 08:51:11;;;;;;;91.85;82.65;;;;;;;7.20;69.80;96447.72;5097989;28;20569;-72
2023/01/01 08:53:38;;;;;;;77.82;70.00;;;;;;;7.27;69.31;96442.66;5098132;28;20192;-71
2023/01/01 08:56:06;;;;;;;85.60;76.88;;;;;;;7.40;69.56;96450.13;5098824;28;20199;-71
2023/01/01 08:58:35;;;;;;;88.63;79.20;;;;;;;7.46;68.78;96439.88;5098029;28;20254;-71
2023/01/01 09:01:02;;;;;;;75.68;68.00;;;;;;;7.49;68.64;96442.03;5099412;28;20571;-70
2023/01/01 09:03:29;;;;;;;66.78;59.75;;;;;;;7.60;68.51;96438.00;5099345;28;20628;-71
2023/01/01 09:05:55;;;;;;;68.70;61.67;;;;;;;7.74;68.98;96432.56;5098929;28;20196;-69
2023/01/01 09:08:24;;;;;;;71.05;63.70;;;;;;;7.79;68.38;96429.72;5099799;28;20211;-71
2023/01/01 09:10:51;;;;;;;78.07;70.25;;;;;;;7.87;68.13;96428.19;5099295;28;20613;-71
2023/01/01 09:13:20;;;;;;;81.05;73.10;;;;;;;7.97;68.21;96426.06;5098787;28;20204;-71
2023/01/01 09:15:46;;;;;;;85.20;76.72;;;;;;;8.13;67.86;96421.13;5098518;28;20199;-71
2023/01/01 09:18:13;;;;;;;85.25;76.75;;;;;;;8.25;67.66;96408.81;5098256;28;20199;-71
2023/01/01 09:20:40;;;;;;;95.93;86.32;;;;;;;8.34;66.73;96413.28;5098334;28;20204;-71
2023/01/01 09:23:07;;;;;;;99.70;89.68;;;;;;;8.46;66.45;96400.97;5098421;28;20204;-71
2023/01/01 09:25:36;;;;;;;98.32;88.47;;;;;;;8.58;65.81;96395.78;5098620;28;20217;-72
2023/01/01 09:28:04;;;;;;;89.20;80.30;;;;;;;8.75;64.74;96389.63;5099398;28;20192;-71
2023/01/01 09:30:31;;;;;;;85.82;77.40;;;;;;;8.90;64.30;96390.13;5098213;28;20192;-71
2023/01/01 09:32:58;;;;;;;80.43;72.18;;;;;;;9.05;63.51;96396.41;5098474;28;20181;-71
2023/01/01 09:35:25;;;;;;;73.57;66.07;;;;;;;9.25;63.34;96392.31;5099090;28;20197;-71
2023/01/01 09:37:52;;;;;;;65.80;59.13;;;;;;;9.45;62.64;96386.34;5098716;28;20185;-71
2023/01/01 09:40:26;;;;;;;67.03;60.22;;;;;;;9.73;61.74;96388.91;5098008;28;20298;-71
2023/01/01 09:43:04;;;;;;;64.85;57.83;;;;;;;9.92;61.55;96380.47;5098711;28;20188;-71
2023/01/01 09:45:33;;;;;;;67.32;60.28;;;;;;;10.12;60.68;96374.38;5098562;28;20227;-71
2023/01/01 09:48:05;;;;;;;66.22;59.25;;;;;;;10.31;59.66;96379.66;5098339;28;20200;-71
2023/01/01 09:50:35;;;;;;;68.57;61.42;;;;;;;10.53;59.46;96379.59;5098163;28;20212;-71
2023/01/01 09:53:04;;;;;;;67.95;60.60;;;;;;;10.76;58.59;96376.69;5098427;28;20180;-72
2023/01/01 09:55:38;;;;;;;67.65;60.65;;;;;;;10.96;57.94;96376.06;5098435;28;20184;-71
2023/01/01 09:58:10;;;;;;;63.78;57.40;;;;;;;11.15;57.03;96363.88;5098201;28;20253;-71
2023/01/01 10:00:38;;;;;;;63.45;56.90;;;;;;;11.28;56.25;96365.69;5097473;28;20200;-71
2023/01/01 10:03:20;;;;;;;65.20;58.17;;;;;;;11.64;55.70;96359.78;5097627;28;20500;-71
2023/01/01 10:05:55;;;;;;;76.82;68.85;;;;;;;11.84;55.30;96363.00;5097261;28;20204;-71
2023/01/01 10:08:30;;;;;;;81.18;72.57;;;;;;;11.93;54.73;96364.59;5099139;28;20191;-71
2023/01/01 10:11:05;;;;;;;78.18;70.03;;;;;;;11.81;54.17;96362.50;5098947;28;20176;-71
2023/01/01 10:13:37;;;;;;;73.97;66.45;;;;;;;11.78;54.25;96360.41;5098960;28;20199;-70
2023/01/01 10:16:05;;;;;;;73.55;65.75;;;;;;;11.69;54.21;96361.53;5099006;28;20185;-71
2023/01/01 10:18:35;;;;;;;69.10;62.00;;;;;;;11.74;54.52;96364.16;5098975;28;20188;-71
2023/01/01 10:21:07;;;;;;;69.75;62.55;;;;;;;11.72;54.06;96350.66;5099152;28;20265;-70
2023/01/01 10:23:41;;;;;;;69.05;61.88;;;;;;;11.70;54.01;96355.72;5098417;28;20612;-71
2023/01/01 10:26:11;;;;;;;68.82;61.65;;;;;;;11.62;54.01;96362.06;5098533;28;20197;-71
2023/01/01 10:28:45;;;;;;;70.60;63.33;;;;;;;11.36;53.74;96361.28;5097929;28;20643;-72
2023/01/01 10:31:16;;;;;;;67.93;60.97;;;;;;;11.08;53.99;96351.41;5098251;28;20193;-72
2023/01/01 10:33:43;;;;;;;66.22;59.13;;;;;;;10.87;54.64;96350.41;5099145;28;20188;-72
2023/01/01 10:36:11;;;;;;;66.80;59.85;;;;;;;10.67;55.27;96342.75;5098073;28;20200;-71
2023/01/01 10:38:39;;;;;;;68.20;60.97;;;;;;;10.48;56.15;96338.34;5097332;28;20200;-71
2023/01/01 10:41:08;;;;;;;68.50;61.55;;;;;;;10.35;56.38;96337.34;5095481;28;20221;-71
2023/01/01 10:43:35;;;;;;;66.22;59.50;;;;;;;10.28;57.33;96333.44;5096350;28;20530;-71
2023/01/01 10:46:04;;;;;;;66.43;59.22;;;;;;;10.21;56.94;96325.59;5096872;28;20185;-71
2023/01/01 10:48:32;;;;;;;70.65;63.45;;;;;;;10.11;57.32;96323.94;5096680;28;20574;-71
2023/01/01 10:51:00;;;;;;;73.93;66.20;;;;;;;10.02;57.19;96316.75;5096589;28;20562;-71
2023/01/01 10:53:30;;;;;;;74.30;65.90;;;;;;;10.01;57.26;96317.91;5096519;28;20189;-71
2023/01/01 10:56:07;;;;;;;71.78;64.30;;;;;;;10.01;58.02;96307.69;5096543;28;20211;-71
2023/01/01 10:58:46;;;;;;;72.30;64.63;;;;;;;9.99;57.94;96311.91;5095718;28;20199;-71
2023/01/01 11:01:21;;;;;;;76.13;67.93;;;;;;;10.01;58.19;96299.41;5096307;28;20202;-71
2023/01/01 11:03:56;;;;;;;75.30;67.32;;;;;;;10.03;58.11;96301.88;5096276;28;20188;-71
2023/01/01 11:06:24;;;;;;;76.95;68.72;;;;;;;10.07;58.45;96300.09;5095980;28;20601;-71
2023/01/01 11:08:53;;;;;;;78.65;70.43;;;;;;;10.08;58.06;96297.00;5095945;28;20188;-71
2023/01/01 11:11:22;;;;;;;74.63;66.82;;;;;;;10.11;58.41;96287.28;5096024;28;20193;-71
2023/01/01 11:13:50;;;;;;;76.93;68.90;;;;;;;10.18;58.27;96287.63;5096435;28;20192;-71
2023/01/01 11:16:18;;;;;;;77.85;69.90;;;;;;;10.31;58.94;96283.13;5095681;28;20238;-71
2023/01/01 11:18:45;;;;;;;76.40;68.20;;;;;;;10.54;58.04;96286.59;5094795;28;20197;-71
2023/01/01 11:21:20;;;;;;;78.25;69.97;;;;;;;10.88;57.64;96282.22;5096076;28;20184;-71
2023/01/01 11:23:47;;;;;;;78.07;69.53;;;;;;;11.35;56.51;96272.09;5095248;28;20200;-71
2023/01/01 11:26:23;;;;;;;81.65;72.93;;;;;;;11.86;55.09;96261.22;5094806;28;20261;-71
2023/01/01 11:29:00;;;;;;;81.10;72.63;;;;;;;12.26;54.22;96265.22;5094658;28;20249;-71
2023/01/01 11:31:30;;;;;;;77.65;69.22;;;;;;;12.70;52.93;96267.69;5095119;28;20195;-71
2023/01/01 11:33:57;;;;;;;84.40;75.63;;;;;;;13.01;52.13;96267.28;5095878;28;20211;-71